createdAt,value
2023-04-10T00:00:58.803Z,2.67
2023-04-10T00:03:28.634Z,2.47
2023-04-10T00:05:57.406Z,2.63
2023-04-10T00:08:26.335Z,2.50
2023-04-10T00:10:56.106Z,2.60
2023-04-10T00:13:24.641Z,3.00
2023-04-10T00:15:52.844Z,2.80
2023-04-10T00:18:21.181Z,2.30
2023-04-10T00:20:50.908Z,2.63
2023-04-10T00:23:19.160Z,2.50
2023-04-10T00:25:49.062Z,2.40
2023-04-10T00:28:17.394Z,2.42
2023-04-10T00:30:45.862Z,2.83
2023-04-10T00:33:14.159Z,2.80
2023-04-10T00:35:42.486Z,2.80
2023-04-10T00:38:12.200Z,2.47
2023-04-10T00:40:40.810Z,2.78
2023-04-10T00:43:09.041Z,2.72
2023-04-10T00:45:37.435Z,2.58
2023-04-10T00:48:06.508Z,2.50
2023-04-10T00:50:34.806Z,2.47
2023-04-10T00:53:04.098Z,2.58
2023-04-10T00:55:33.730Z,2.63
2023-04-10T00:58:02.039Z,2.80
2023-04-10T01:00:30.980Z,2.47
2023-04-10T01:03:00.730Z,2.42
2023-04-10T01:05:36.218Z,2.40
2023-04-10T01:08:10.571Z,2.58
2023-04-10T01:10:47.835Z,2.63
2023-04-10T01:13:23.033Z,2.72
2023-04-10T01:15:59.188Z,2.65
2023-04-10T01:18:32.728Z,2.60
2023-04-10T01:21:04.020Z,2.75
2023-04-10T01:24:25.969Z,2.70
2023-04-10T01:27:10.090Z,2.72
2023-04-10T01:29:44.797Z,2.70
2023-04-10T01:32:18.064Z,2.70
2023-04-10T01:34:50.991Z,2.78
2023-04-10T01:37:24.584Z,2.80
2023-04-10T01:40:01.999Z,2.92
2023-04-10T01:42:33.591Z,2.67
2023-04-10T01:45:04.895Z,2.67
2023-04-10T01:47:34.205Z,2.60
2023-04-10T01:50:04.545Z,3.03
2023-04-10T01:52:34.237Z,2.58
2023-04-10T01:55:18.751Z,2.78
2023-04-10T01:57:53.537Z,2.55
2023-04-10T02:00:23.959Z,2.47
2023-04-10T02:02:53.468Z,2.58
2023-04-10T02:05:23.158Z,2.88
2023-04-10T02:07:57.973Z,2.75
2023-04-10T02:10:31.679Z,2.63
2023-04-10T02:13:06.580Z,2.70
2023-04-10T02:15:37.777Z,2.67
2023-04-10T02:18:08.155Z,2.60
2023-04-10T02:20:37.415Z,2.80
2023-04-10T02:23:06.677Z,2.80
2023-04-10T02:25:35.700Z,2.63
2023-04-10T02:28:06.128Z,2.70
2023-04-10T02:30:36.619Z,2.58
2023-04-10T02:33:05.180Z,2.60
2023-04-10T02:35:34.316Z,2.33
2023-04-10T02:38:04.636Z,2.67
2023-04-10T02:40:38.637Z,2.85
2023-04-10T02:43:13.218Z,2.63
2023-04-10T02:45:43.854Z,2.78
2023-04-10T02:48:15.444Z,2.40
2023-04-10T02:50:46.258Z,2.38
2023-04-10T02:53:15.090Z,2.25
2023-04-10T02:55:43.426Z,2.50
2023-04-10T02:58:13.174Z,2.30
2023-04-10T03:00:49.732Z,2.70
2023-04-10T03:03:24.663Z,2.60
2023-04-10T03:05:55.868Z,2.70
2023-04-10T03:08:30.392Z,2.80
2023-04-10T03:10:58.761Z,2.78
2023-04-10T03:13:27.118Z,2.47
2023-04-10T03:15:56.797Z,2.40
2023-04-10T03:18:25.424Z,2.60
2023-04-10T03:20:55.908Z,2.80
2023-04-10T03:23:24.252Z,2.75
2023-04-10T03:25:53.959Z,2.40
2023-04-10T03:28:25.439Z,2.72
2023-04-10T03:30:53.784Z,2.90
2023-04-10T03:33:23.492Z,2.53
2023-04-10T03:35:51.987Z,2.33
2023-04-10T03:38:20.462Z,2.47
2023-04-10T03:40:48.721Z,2.88
2023-04-10T03:43:20.081Z,2.20
2023-04-10T03:45:49.210Z,2.60
2023-04-10T03:48:18.831Z,2.55
2023-04-10T03:50:50.159Z,2.83
2023-04-10T03:53:18.476Z,2.50
2023-04-10T03:55:47.032Z,2.60
2023-04-10T03:58:15.356Z,2.60
2023-04-10T04:00:43.683Z,2.40
2023-04-10T04:03:23.964Z,2.38
2023-04-10T04:06:08.408Z,2.85
2023-04-10T04:08:43.692Z,2.33
2023-04-10T04:11:17.558Z,2.53
2023-04-10T04:14:01.169Z,2.40
2023-04-10T04:16:45.869Z,2.28
2023-04-10T04:19:31.819Z,2.95
2023-04-10T04:22:10.330Z,3.00
2023-04-10T04:25:08.795Z,2.58
2023-04-10T04:27:55.624Z,2.63
2023-04-10T04:30:35.069Z,2.70
2023-04-10T04:33:29.513Z,2.70
2023-04-10T04:36:01.119Z,2.53
2023-04-10T04:38:39.857Z,2.38
2023-04-10T04:41:24.882Z,2.78
2023-04-10T04:44:28.265Z,2.60
2023-04-10T04:47:05.041Z,2.45
2023-04-10T04:49:51.710Z,2.40
2023-04-10T04:52:38.539Z,2.55
2023-04-10T04:55:28.400Z,2.25
2023-04-10T04:58:05.002Z,2.42
2023-04-10T05:00:46.289Z,2.42
2023-04-10T05:03:33.144Z,2.47
2023-04-10T05:06:15.508Z,2.40
2023-04-10T05:09:02.629Z,2.60
2023-04-10T05:11:50.558Z,2.33
2023-04-10T05:14:41.758Z,2.45
2023-04-10T05:17:28.487Z,2.13
2023-04-10T05:20:06.796Z,2.50
2023-04-10T05:22:58.266Z,2.25
2023-04-10T05:25:52.585Z,1.92
2023-04-10T05:28:33.450Z,2.40
2023-04-10T05:31:27.127Z,2.35
2023-04-10T05:34:10.009Z,2.55
2023-04-10T05:37:12.911Z,2.25
2023-04-10T05:40:09.112Z,2.28
2023-04-10T05:43:03.653Z,2.58
2023-04-10T05:45:40.671Z,2.13
2023-04-10T05:48:28.829Z,2.42
2023-04-10T05:51:17.508Z,2.20
2023-04-10T05:54:08.569Z,2.25
2023-04-10T05:56:49.742Z,2.50
2023-04-10T05:59:36.763Z,2.38
2023-04-10T06:02:21.943Z,2.40
2023-04-10T06:04:50.866Z,2.13
2023-04-10T06:07:19.193Z,2.13
2023-04-10T06:09:47.423Z,2.40
2023-04-10T06:12:15.689Z,2.60
2023-04-10T06:14:44.847Z,2.60
2023-04-10T06:17:13.671Z,2.25
2023-04-10T06:19:44.019Z,2.63
2023-04-10T06:22:12.397Z,2.28
2023-04-10T06:24:40.629Z,2.10
2023-04-10T06:27:09.017Z,2.53
2023-04-10T06:29:37.384Z,2.20
2023-04-10T06:32:06.346Z,1.85
2023-04-10T06:34:38.346Z,2.10
2023-04-10T06:37:10.432Z,2.30
2023-04-10T06:39:39.319Z,1.92
2023-04-10T06:42:08.145Z,2.35
2023-04-10T06:44:45.508Z,2.20
2023-04-10T06:47:13.838Z,2.20
2023-04-10T06:49:42.161Z,2.10
2023-04-10T06:52:11.871Z,2.00
2023-04-10T06:54:40.126Z,2.08
2023-04-10T06:57:08.561Z,2.28
2023-04-10T06:59:36.903Z,2.38
2023-04-10T07:02:05.566Z,2.38
2023-04-10T07:04:33.887Z,2.15
2023-04-10T07:07:02.171Z,2.03
2023-04-10T07:09:32.063Z,2.20
2023-04-10T07:12:00.490Z,2.30
2023-04-10T07:14:28.754Z,2.20
2023-04-10T07:16:57.035Z,2.17
2023-04-10T07:19:25.748Z,2.10
2023-04-10T07:21:54.066Z,2.10
2023-04-10T07:24:22.594Z,2.05
2023-04-10T07:26:52.291Z,2.22
2023-04-10T07:29:21.606Z,2.63
2023-04-10T07:31:49.917Z,2.17
2023-04-10T07:34:18.898Z,2.03
2023-04-10T07:36:47.178Z,2.20
2023-04-10T07:39:15.492Z,2.10
2023-04-10T07:41:44.058Z,2.38
2023-04-10T07:44:14.589Z,2.17
2023-04-10T07:46:43.073Z,2.17
2023-04-10T07:49:12.021Z,2.05
2023-04-10T07:51:40.340Z,2.30
2023-04-10T07:54:08.639Z,1.95
2023-04-10T07:56:37.010Z,2.20
2023-04-10T07:59:05.337Z,2.10
2023-04-10T08:01:35.039Z,2.10
2023-04-10T08:04:05.491Z,2.35
2023-04-10T08:06:34.582Z,2.22
2023-04-10T08:09:02.863Z,2.08
2023-04-10T08:11:32.463Z,2.20
2023-04-10T08:14:03.111Z,2.05
2023-04-10T08:16:32.775Z,2.10
2023-04-10T08:19:02.885Z,2.15
2023-04-10T08:21:32.266Z,1.77
2023-04-10T08:24:02.100Z,2.08
2023-04-10T08:26:30.665Z,2.10
2023-04-10T08:29:00.925Z,1.90
2023-04-10T08:31:30.233Z,2.10
2023-04-10T08:33:59.168Z,2.40
2023-04-10T08:36:29.701Z,2.13
2023-04-10T08:38:58.002Z,2.10
2023-04-10T08:41:26.937Z,1.90
2023-04-10T08:43:55.594Z,2.17
2023-04-10T08:46:26.199Z,2.10
2023-04-10T08:48:59.931Z,1.90
2023-04-10T08:51:35.057Z,2.15
2023-04-10T08:54:08.014Z,2.05
2023-04-10T08:56:38.917Z,1.90
2023-04-10T08:59:08.829Z,2.20
2023-04-10T09:01:37.259Z,1.95
2023-04-10T09:04:06.549Z,2.10
2023-04-10T09:06:36.403Z,2.03
2023-04-10T09:09:04.801Z,2.08
2023-04-10T09:12:00.406Z,2.13
2023-04-10T09:14:30.643Z,2.05
2023-04-10T09:17:18.263Z,2.30
2023-04-10T09:19:47.528Z,1.90
2023-04-10T09:22:17.870Z,1.85
2023-04-10T09:24:48.012Z,2.10
2023-04-10T09:27:31.345Z,1.88
2023-04-10T09:30:00.403Z,1.70
2023-04-10T09:32:40.447Z,1.92
2023-04-10T09:35:09.724Z,1.70
2023-04-10T09:37:41.687Z,2.05
2023-04-10T09:40:21.971Z,1.90
2023-04-10T09:42:50.403Z,1.98
2023-04-10T09:45:20.657Z,1.83
2023-04-10T09:48:04.448Z,1.85
2023-04-10T09:50:39.623Z,1.90
2023-04-10T09:53:12.296Z,1.90
2023-04-10T09:55:41.523Z,1.90
2023-04-10T09:58:11.098Z,2.10
2023-04-10T10:00:43.939Z,2.00
2023-04-10T10:03:13.687Z,1.70
2023-04-10T10:05:44.205Z,1.70
2023-04-10T10:08:15.917Z,2.03
2023-04-10T10:10:48.048Z,1.70
2023-04-10T10:13:19.091Z,2.00
2023-04-10T10:15:53.160Z,2.00
2023-04-10T10:18:28.397Z,1.65
2023-04-10T10:20:57.425Z,2.03
2023-04-10T10:23:28.105Z,1.92
2023-04-10T10:25:57.314Z,1.77
2023-04-10T10:28:27.086Z,1.70
2023-04-10T10:30:56.354Z,1.90
2023-04-10T10:33:27.395Z,1.90
2023-04-10T10:35:59.245Z,1.52
2023-04-10T10:38:29.478Z,1.90
2023-04-10T10:41:02.875Z,1.60
2023-04-10T10:43:43.460Z,1.60
2023-04-10T10:46:17.238Z,1.88
2023-04-10T10:48:57.631Z,1.83
2023-04-10T10:51:43.316Z,1.95
2023-04-10T10:54:30.976Z,1.88
2023-04-10T10:56:59.717Z,1.70
2023-04-10T10:59:55.692Z,1.80
2023-04-10T11:02:24.970Z,1.52
2023-04-10T11:04:53.510Z,1.45
2023-04-10T11:07:21.715Z,1.80
2023-04-10T11:09:53.359Z,1.75
2023-04-10T11:12:23.654Z,1.48
2023-04-10T11:14:59.941Z,1.60
2023-04-10T11:17:49.881Z,1.55
2023-04-10T11:20:20.877Z,1.60
2023-04-10T11:23:10.008Z,1.65
2023-04-10T11:25:50.386Z,1.52
2023-04-10T11:28:38.309Z,1.40
2023-04-10T11:31:18.623Z,1.40
2023-04-10T11:33:47.826Z,1.77
2023-04-10T11:36:18.145Z,1.50
2023-04-10T11:38:59.539Z,1.45
2023-04-10T11:41:30.901Z,1.65
2023-04-10T11:44:00.473Z,1.50
2023-04-10T11:46:29.306Z,1.48
2023-04-10T11:49:00.078Z,1.42
2023-04-10T11:51:28.878Z,1.50
2023-04-10T11:54:09.353Z,1.30
2023-04-10T11:56:40.974Z,1.30
2023-04-10T11:59:11.231Z,1.33
2023-04-10T12:01:43.042Z,1.20
2023-04-10T12:04:19.056Z,1.42
2023-04-10T12:06:48.421Z,1.40
2023-04-10T12:09:18.458Z,1.10
2023-04-10T12:11:56.109Z,1.38
2023-04-10T12:14:30.693Z,1.10
2023-04-10T12:16:59.275Z,1.25
2023-04-10T12:19:28.382Z,1.33
2023-04-10T12:21:58.150Z,1.27
2023-04-10T12:24:46.819Z,1.05
2023-04-10T12:27:20.385Z,1.00
2023-04-10T12:29:50.046Z,1.00
2023-04-10T12:32:19.035Z,1.13
2023-04-10T12:34:52.605Z,1.27
2023-04-10T12:37:21.289Z,1.25
2023-04-10T12:39:49.936Z,1.27
2023-04-10T12:42:22.629Z,0.88
2023-04-10T12:44:55.699Z,1.17
2023-04-10T12:47:24.745Z,1.20
2023-04-10T12:50:07.601Z,1.20
2023-04-10T12:52:36.388Z,1.20
2023-04-10T12:55:12.556Z,0.90
2023-04-10T12:57:42.959Z,1.10
2023-04-10T13:00:13.212Z,1.02
2023-04-10T13:02:42.379Z,1.10
2023-04-10T13:05:11.424Z,1.00
2023-04-10T13:07:40.289Z,1.00
2023-04-10T13:10:09.770Z,1.10
2023-04-10T13:12:39.070Z,1.00
2023-04-10T13:15:10.810Z,1.20
2023-04-10T13:17:40.905Z,1.00
2023-04-10T13:20:11.145Z,0.90
2023-04-10T13:22:39.903Z,1.10
2023-04-10T13:25:08.737Z,0.82
2023-04-10T13:27:37.005Z,1.20
2023-04-10T13:30:05.790Z,1.15
2023-04-10T13:32:35.608Z,0.90
2023-04-10T13:35:03.900Z,0.90
2023-04-10T13:37:34.947Z,0.90
2023-04-10T13:40:03.283Z,0.80
2023-04-10T13:42:31.485Z,1.10
2023-04-10T13:44:59.774Z,0.90
2023-04-10T13:47:28.269Z,0.95
2023-04-10T13:49:57.884Z,1.00
2023-04-10T13:52:26.239Z,0.90
2023-04-10T13:54:54.443Z,1.02
2023-04-10T13:57:22.793Z,0.95
2023-04-10T13:59:51.079Z,0.90
2023-04-10T14:02:19.555Z,0.90
2023-04-10T14:04:47.955Z,1.00
2023-04-10T14:07:17.582Z,1.00
2023-04-10T14:09:47.089Z,0.95
2023-04-10T14:12:16.789Z,1.00
2023-04-10T14:14:45.516Z,0.90
2023-04-10T14:17:13.898Z,0.80
2023-04-10T14:19:43.446Z,0.88
2023-04-10T14:22:11.756Z,1.20
2023-04-10T14:24:41.455Z,0.90
2023-04-10T14:27:11.528Z,0.98
2023-04-10T14:29:47.622Z,1.00
2023-04-10T14:32:22.740Z,0.85
2023-04-10T14:34:51.056Z,1.00
2023-04-10T14:37:19.783Z,0.88
2023-04-10T14:39:49.476Z,0.93
2023-04-10T14:42:17.752Z,0.93
2023-04-10T14:44:45.991Z,1.02
2023-04-10T14:47:14.320Z,1.00
2023-04-10T14:49:42.673Z,0.93
2023-04-10T14:52:11.129Z,0.70
2023-04-10T14:54:39.593Z,0.80
2023-04-10T14:57:09.834Z,0.98
2023-04-10T14:59:38.223Z,0.80
2023-04-10T15:02:06.529Z,1.00
2023-04-10T15:04:34.876Z,0.90
2023-04-10T15:07:03.148Z,0.90
2023-04-10T15:09:31.554Z,0.90
2023-04-10T15:11:59.874Z,1.02
2023-04-10T15:14:29.487Z,1.25
2023-04-10T15:16:57.818Z,0.80
2023-04-10T15:19:26.788Z,0.90
2023-04-10T15:21:56.152Z,0.70
2023-04-10T15:24:24.552Z,0.80
2023-04-10T15:26:53.560Z,0.80
2023-04-10T15:29:21.936Z,0.82
2023-04-10T15:31:51.985Z,0.93
2023-04-10T15:34:20.291Z,0.93
2023-04-10T15:36:48.814Z,0.90
2023-04-10T15:39:17.128Z,0.77
2023-04-10T15:41:45.377Z,1.10
2023-04-10T15:44:13.640Z,1.00
2023-04-10T15:46:41.999Z,0.90
2023-04-10T15:49:11.682Z,1.10
2023-04-10T15:51:40.090Z,0.85
2023-04-10T15:54:09.146Z,0.88
2023-04-10T15:56:37.467Z,0.93
2023-04-10T15:59:05.781Z,1.05
2023-04-10T16:01:37.094Z,0.90
2023-04-10T16:04:05.660Z,0.88
2023-04-10T16:06:35.384Z,0.70
2023-04-10T16:09:07.902Z,0.80
2023-04-10T16:11:46.901Z,0.70
2023-04-10T16:14:15.179Z,0.90
2023-04-10T16:16:43.486Z,0.80
2023-04-10T16:19:11.848Z,1.05
2023-04-10T16:21:42.711Z,0.82
2023-04-10T16:24:10.972Z,0.70
2023-04-10T16:26:39.237Z,0.90
2023-04-10T16:29:07.643Z,0.65
2023-04-10T16:31:35.950Z,0.65
2023-04-10T16:34:04.229Z,0.80
2023-04-10T16:36:32.573Z,0.90
2023-04-10T16:39:02.224Z,0.90
2023-04-10T16:41:30.522Z,0.90
2023-04-10T16:43:58.857Z,0.90
2023-04-10T16:46:27.271Z,0.80
2023-04-10T16:48:55.698Z,0.90
2023-04-10T16:51:24.524Z,0.70
2023-04-10T16:53:52.907Z,0.65
2023-04-10T16:56:22.634Z,0.82
2023-04-10T16:58:50.920Z,0.82
2023-04-10T17:01:20.327Z,0.60
2023-04-10T17:03:49.458Z,0.80
2023-04-10T17:06:19.219Z,0.70
2023-04-10T17:08:48.171Z,0.90
2023-04-10T17:11:16.930Z,0.70
2023-04-10T17:13:47.492Z,0.80
2023-04-10T17:16:15.928Z,0.70
2023-04-10T17:18:44.445Z,0.80
2023-04-10T17:21:13.193Z,0.90
2023-04-10T17:23:41.950Z,0.80
2023-04-10T17:26:14.471Z,0.70
2023-04-10T17:28:44.834Z,0.88
2023-04-10T17:31:15.014Z,0.93
2023-04-10T17:33:43.559Z,0.70
2023-04-10T17:36:13.078Z,0.70
2023-04-10T17:38:42.446Z,0.90
2023-04-10T17:41:11.390Z,0.68
2023-04-10T17:43:40.271Z,0.88
2023-04-10T17:46:08.642Z,0.70
2023-04-10T17:48:39.064Z,1.00
2023-04-10T17:51:08.140Z,0.70
2023-04-10T17:53:36.945Z,0.80
2023-04-10T17:56:05.854Z,0.80
2023-04-10T17:58:34.240Z,0.70
2023-04-10T18:01:02.640Z,0.80
2023-04-10T18:03:31.058Z,0.57
2023-04-10T18:06:00.784Z,1.00
2023-04-10T18:08:29.141Z,0.90
2023-04-10T18:10:58.148Z,0.90
2023-04-10T18:13:26.483Z,0.80
2023-04-10T18:15:54.740Z,0.70
2023-04-10T18:18:23.085Z,0.80
2023-04-10T18:20:51.353Z,1.00
2023-04-10T18:23:21.039Z,0.85
2023-04-10T18:25:54.192Z,0.70
2023-04-10T18:28:23.054Z,0.60
2023-04-10T18:30:53.908Z,0.90
2023-04-10T18:33:24.121Z,1.00
2023-04-10T18:35:52.736Z,0.80
2023-04-10T18:38:22.689Z,0.75
2023-04-10T18:40:50.948Z,0.60
2023-04-10T18:43:19.223Z,0.70
2023-04-10T18:45:47.563Z,0.95
2023-04-10T18:48:15.880Z,0.80
2023-04-10T18:50:44.190Z,0.80
2023-04-10T18:53:12.568Z,0.70
2023-04-10T18:55:42.229Z,1.08
2023-04-10T18:58:10.592Z,0.70
2023-04-10T19:00:38.846Z,1.00
2023-04-10T19:03:07.438Z,0.77
2023-04-10T19:05:35.830Z,0.70
2023-04-10T19:08:04.979Z,0.77
2023-04-10T19:10:33.779Z,0.90
2023-04-10T19:13:03.846Z,0.65
2023-04-10T19:15:32.275Z,0.80
2023-04-10T19:18:00.614Z,0.73
2023-04-10T19:20:48.702Z,0.80
2023-04-10T19:23:17.134Z,0.75
2023-04-10T19:25:45.548Z,0.80
2023-04-10T19:28:15.502Z,0.93
2023-04-10T19:30:43.846Z,0.95
2023-04-10T19:33:12.084Z,0.85
2023-04-10T19:35:40.365Z,0.77
2023-04-10T19:38:08.751Z,0.90
2023-04-10T19:40:37.494Z,0.90
2023-04-10T19:43:05.865Z,0.80
2023-04-10T19:45:37.479Z,0.80
2023-04-10T19:48:07.136Z,0.85
2023-04-10T19:50:35.523Z,0.70
2023-04-10T19:53:03.845Z,0.70
2023-04-10T19:55:32.477Z,0.70
2023-04-10T19:58:00.815Z,0.90
2023-04-10T20:00:29.093Z,0.80
2023-04-10T20:02:59.092Z,0.90
2023-04-10T20:05:27.740Z,0.70
2023-04-10T20:07:56.010Z,0.60
2023-04-10T20:10:24.421Z,0.77
2023-04-10T20:12:52.703Z,0.88
2023-04-10T20:15:21.532Z,0.70
2023-04-10T20:17:49.984Z,0.60
2023-04-10T20:20:19.670Z,0.73
2023-04-10T20:22:48.585Z,0.80
2023-04-10T20:25:16.954Z,0.80
2023-04-10T20:27:45.200Z,0.70
2023-04-10T20:30:13.642Z,0.70
2023-04-10T20:32:41.905Z,0.80
2023-04-10T20:35:11.086Z,0.73
2023-04-10T20:37:40.811Z,1.00
2023-04-10T20:40:10.426Z,0.70
2023-04-10T20:42:38.646Z,0.80
2023-04-10T20:45:07.944Z,0.88
2023-04-10T20:47:36.340Z,0.93
2023-04-10T20:50:04.878Z,0.85
2023-04-10T20:52:33.185Z,0.85
2023-04-10T20:55:02.927Z,0.90
2023-04-10T20:57:31.370Z,0.80
2023-04-10T20:59:59.646Z,0.70
2023-04-10T21:02:28.203Z,0.77
2023-04-10T21:04:56.742Z,0.88
2023-04-10T21:07:25.118Z,0.70
2023-04-10T21:09:53.439Z,0.90
2023-04-10T21:12:23.442Z,0.80
2023-04-10T21:14:51.776Z,0.88
2023-04-10T21:17:20.437Z,0.70
2023-04-10T21:19:48.830Z,0.85
2023-04-10T21:22:17.134Z,0.82
2023-04-10T21:24:45.423Z,0.73
2023-04-10T21:27:13.815Z,0.70
2023-04-10T21:29:43.512Z,0.70
2023-04-10T21:32:11.939Z,0.80
2023-04-10T21:34:40.335Z,0.90
2023-04-10T21:37:08.631Z,0.75
2023-04-10T21:39:36.968Z,0.90
2023-04-10T21:42:05.794Z,1.02
2023-04-10T21:44:34.104Z,0.60
2023-04-10T21:47:04.466Z,0.80
2023-04-10T21:49:32.758Z,0.70
2023-04-10T21:52:00.978Z,0.80
2023-04-10T21:54:30.209Z,0.80
2023-04-10T21:56:58.542Z,0.65
2023-04-10T21:59:26.862Z,0.65
2023-04-10T22:01:55.209Z,0.77
2023-04-10T22:04:25.248Z,0.70
2023-04-10T22:06:53.621Z,0.80
2023-04-10T22:09:22.902Z,0.90
2023-04-10T22:11:51.247Z,0.70
2023-04-10T22:14:21.257Z,0.85
2023-04-10T22:16:49.753Z,0.98
2023-04-10T22:19:18.075Z,0.80
2023-04-10T22:21:47.674Z,0.80
2023-04-10T22:24:16.003Z,0.90
2023-04-10T22:26:46.074Z,0.70
2023-04-10T22:29:14.926Z,0.80
2023-04-10T22:31:44.418Z,0.90
2023-04-10T22:34:12.905Z,0.70
2023-04-10T22:36:41.581Z,0.88
2023-04-10T22:39:11.341Z,0.70
2023-04-10T22:41:39.632Z,1.02
2023-04-10T22:44:08.332Z,0.70
2023-04-10T22:46:36.976Z,0.77
2023-04-10T22:49:05.477Z,0.73
2023-04-10T22:51:33.900Z,0.85
2023-04-10T22:54:02.175Z,0.82
2023-04-10T22:56:31.933Z,0.70
2023-04-10T22:59:00.272Z,0.80
2023-04-10T23:01:28.837Z,0.80
2023-04-10T23:03:57.262Z,0.80
2023-04-10T23:06:25.735Z,0.77
2023-04-10T23:08:54.499Z,0.70
2023-04-10T23:11:23.214Z,0.77
2023-04-10T23:13:52.948Z,0.77
2023-04-10T23:16:21.887Z,0.70
2023-04-10T23:18:51.092Z,0.77
2023-04-10T23:21:19.694Z,0.70
2023-04-10T23:23:48.087Z,0.85
2023-04-10T23:26:16.398Z,0.80
2023-04-10T23:28:44.642Z,0.93
2023-04-10T23:31:14.569Z,0.70
2023-04-10T23:33:43.122Z,0.80
2023-04-10T23:36:11.648Z,0.80
2023-04-10T23:38:39.891Z,0.70
2023-04-10T23:41:08.705Z,0.68
2023-04-10T23:43:36.953Z,0.60
2023-04-10T23:46:05.413Z,0.80
2023-04-10T23:48:35.154Z,0.70
2023-04-10T23:51:07.127Z,0.75
2023-04-10T23:53:35.936Z,0.90
2023-04-10T23:56:04.260Z,0.60
2023-04-10T23:58:32.691Z,0.65
